Time,TemperatureF,DewpointF,PressureIn,WindDirection,WindDirectionDegrees,WindSpeedMPH,WindSpeedGustMPH,Humidity,HourlyPrecipIn,Conditions,Clouds,dailyrainin,SoftwareType,DateUTC
2013-05-31 02:42:00,70.0,65.0,30.13,SW,225,0.0,1.0,85,0.00,,,0.00,,2013-05-31 06:42:00,
2013-05-31 02:52:00,70.0,65.0,30.13,SW,225,0.0,1.0,85,0.00,,,0.00,,2013-05-31 06:52:00,
2013-05-31 03:00:00,69.0,65.0,30.13,South,180,0.0,1.0,86,0.00,,,0.00,,2013-05-31 07:00:00,
2013-05-31 03:02:00,70.0,65.0,30.13,SW,225,0.0,1.0,85,0.00,,,0.00,,2013-05-31 07:02:00,
2013-05-31 03:11:00,69.0,65.0,30.13,South,180,0.0,1.0,86,0.00,,,0.00,,2013-05-31 07:11:00,
2013-05-31 03:21:00,69.0,65.0,30.13,South,180,0.0,1.0,86,0.00,,,0.00,,2013-05-31 07:21:00,
2013-05-31 03:32:00,69.0,65.0,30.13,South,180,0.0,1.0,86,0.00,,,0.00,,2013-05-31 07:32:00,
2013-05-31 03:42:00,69.0,65.0,30.13,South,180,0.0,1.0,86,0.00,,,0.00,,2013-05-31 07:42:00,
2013-05-31 03:53:00,69.0,65.0,30.13,South,180,0.0,1.0,86,0.00,,,0.00,,2013-05-31 07:53:00,
2013-05-31 06:52:00,65.0,63.0,30.14,North,-999,0.0,0.0,94,0.00,,,0.00,,2013-05-31 10:52:00,
2013-05-31 07:00:00,65.0,64.0,30.14,North,-999,0.0,0.0,95,0.00,,,0.00,,2013-05-31 11:00:00,
2013-05-31 07:02:00,65.0,63.0,30.14,North,-999,0.0,0.0,94,0.00,,,0.00,,2013-05-31 11:02:00,
2013-05-31 07:12:00,65.0,63.0,30.14,North,-999,0.0,0.0,94,0.00,,,0.00,,2013-05-31 11:12:00,
2013-05-31 07:22:00,65.0,64.0,30.14,North,-999,0.0,0.0,95,0.00,,,0.00,,2013-05-31 11:22:00,
2013-05-31 07:32:00,65.0,64.0,30.14,North,-999,0.0,0.0,95,0.00,,,0.00,,2013-05-31 11:32:00,
2013-05-31 07:42:00,65.0,64.0,30.14,North,-999,0.0,0.0,95,0.00,,,0.00,,2013-05-31 11:42:00,
2013-05-31 07:52:00,65.0,64.0,30.14,North,-999,0.0,0.0,95,0.00,,,0.00,,2013-05-31 11:52:00,
2013-05-31 08:00:00,68.0,67.0,30.14,SSW,202,0.0,1.0,95,0.00,,,0.00,,2013-05-31 12:00:00,
2013-05-31 08:22:00,68.0,67.0,30.14,SSW,202,0.0,1.0,95,0.00,,,0.00,,2013-05-31 12:22:00,
2013-05-31 08:32:00,68.0,67.0,30.14,SSW,202,0.0,1.0,95,0.00,,,0.00,,2013-05-31 12:32:00,
2013-05-31 08:42:00,68.0,67.0,30.14,SSW,202,0.0,1.0,95,0.00,,,0.00,,2013-05-31 12:42:00,
2013-05-31 08:52:00,68.0,67.0,30.14,SSW,202,0.0,1.0,95,0.00,,,0.00,,2013-05-31 12:52:00,
2013-05-31 12:30:00,81.0,66.0,30.14,South,180,0.0,3.0,61,0.00,,,0.00,,2013-05-31 16:30:00,
2013-05-31 12:53:00,81.0,66.0,30.14,South,180,0.0,3.0,61,0.00,,,0.00,,2013-05-31 16:53:00,
2013-05-31 13:02:00,81.0,66.0,30.14,South,180,0.0,3.0,61,0.00,,,0.00,,2013-05-31 17:02:00,
2013-05-31 13:12:00,81.0,66.0,30.14,South,180,0.0,3.0,61,0.00,,,0.00,,2013-05-31 17:12:00,
2013-05-31 13:22:00,81.0,66.0,30.14,South,180,0.0,3.0,61,0.00,,,0.00,,2013-05-31 17:22:00,
2013-05-31 14:30:00,85.0,66.0,30.10,SSW,202,0.0,3.0,54,0.00,,,0.00,,2013-05-31 18:30:00,
2013-05-31 14:52:00,85.0,66.0,30.10,SSW,202,0.0,3.0,54,0.00,,,0.00,,2013-05-31 18:52:00,
2013-05-31 15:02:00,85.0,66.0,30.10,SSW,202,0.0,3.0,54,0.00,,,0.00,,2013-05-31 19:02:00,
2013-05-31 15:11:00,85.0,66.0,30.10,SSW,202,0.0,3.0,54,0.00,,,0.00,,2013-05-31 19:11:00,
2013-05-31 15:22:00,85.0,66.0,30.10,SSW,202,0.0,3.0,54,0.00,,,0.00,,2013-05-31 19:22:00,
2013-05-31 17:00:00,84.0,66.0,30.04,South,180,0.0,2.0,54,0.00,,,0.00,,2013-05-31 21:00:00,
2013-05-31 17:22:00,84.0,66.0,30.04,South,180,0.0,2.0,54,0.00,,,0.00,,2013-05-31 21:22:00,
2013-05-31 17:33:00,84.0,66.0,30.04,South,180,0.0,2.0,54,0.00,,,0.00,,2013-05-31 21:33:00,
2013-05-31 17:43:00,84.0,66.0,30.04,South,180,0.0,2.0,54,0.00,,,0.00,,2013-05-31 21:43:00,
2013-05-31 17:54:00,84.0,66.0,30.04,South,180,0.0,2.0,54,0.00,,,0.00,,2013-05-31 21:54:00,
2013-05-31 20:00:00,77.0,67.0,30.03,North,-999,0.0,0.0,71,0.00,,,0.00,,2013-06-01 00:00:00,
2013-05-31 20:12:00,77.0,67.0,30.03,North,-999,0.0,0.0,71,0.00,,,0.00,,2013-06-01 00:12:00,
2013-05-31 20:22:00,77.0,67.0,30.03,North,-999,0.0,0.0,71,0.00,,,0.00,,2013-06-01 00:22:00,
2013-05-31 20:32:00,77.0,67.0,30.03,North,-999,0.0,0.0,71,0.00,,,0.00,,2013-06-01 00:32:00,
2013-05-31 20:42:00,77.0,67.0,30.03,North,-999,0.0,0.0,71,0.00,,,0.00,,2013-06-01 00:42:00,
2013-05-31 20:52:00,77.0,67.0,30.03,North,-999,0.0,0.0,71,0.00,,,0.00,,2013-06-01 00:52:00,
2013-05-31 22:00:00,71.0,67.0,30.04,North,-999,0.0,0.0,87,0.00,,,0.00,,2013-06-01 02:00:00,
2013-05-31 22:12:00,71.0,67.0,30.04,North,-999,0.0,0.0,87,0.00,,,0.00,,2013-06-01 02:12:00,
2013-05-31 22:22:00,71.0,67.0,30.04,North,-999,0.0,0.0,87,0.00,,,0.00,,2013-06-01 02:22:00,
2013-05-31 22:32:00,71.0,67.0,30.04,North,-999,0.0,0.0,87,0.00,,,0.00,,2013-06-01 02:32:00,
2013-05-31 22:42:00,71.0,67.0,30.04,North,-999,0.0,0.0,87,0.00,,,0.00,,2013-06-01 02:42:00,
2013-05-31 22:52:00,71.0,67.0,30.04,North,-999,0.0,0.0,87,0.00,,,0.00,,2013-06-01 02:52:00,